Time,TemperatureF,DewpointF,PressureIn,WindDirection,WindDirectionDegrees,WindSpeedMPH,WindSpeedGustMPH,Humidity,HourlyPrecipIn,Conditions,Clouds,dailyrainin,SoftwareType,DateUTC
2013-03-19 00:04:00,61.7,59.0,29.91,WNW,283,1.0,-999.0,89,-99.99,,,0.02,weatherlink.com 1.10,2013-03-19 04:04:00,
2013-03-19 00:19:00,60.1,58.0,29.91,NNW,345,0.0,-999.0,91,-99.99,,,0.10,weatherlink.com 1.10,2013-03-19 04:19:00,
2013-03-19 00:34:00,59.5,57.0,29.90,NNW,345,0.0,-999.0,92,-99.99,,,0.12,weatherlink.com 1.10,2013-03-19 04:34:00,
2013-03-19 00:49:00,59.0,57.0,29.91,North,349,0.0,-999.0,93,-99.99,,,0.14,weatherlink.com 1.10,2013-03-19 04:49:00,
2013-03-19 01:04:00,58.6,57.0,29.89,North,349,0.0,-999.0,93,-99.99,,,0.16,weatherlink.com 1.10,2013-03-19 05:04:00,
2013-03-19 01:19:00,58.4,56.0,29.88,North,349,0.0,-999.0,93,-99.99,,,0.16,weatherlink.com 1.10,2013-03-19 05:19:00,
2013-03-19 01:34:00,58.1,56.0,29.87,North,349,0.0,-999.0,93,-99.99,,,0.16,weatherlink.com 1.10,2013-03-19 05:34:00,
2013-03-19 01:49:00,57.6,56.0,29.87,North,349,0.0,-999.0,93,-99.99,,,0.16,weatherlink.com 1.10,2013-03-19 05:49:00,
2013-03-19 02:04:00,57.3,56.0,29.84,North,349,0.0,-999.0,94,-99.99,,,0.16,weatherlink.com 1.10,2013-03-19 06:04:00,
2013-03-19 02:19:00,57.2,56.0,29.82,SSE,168,0.0,-999.0,94,-99.99,,,0.16,weatherlink.com 1.10,2013-03-19 06:19:00,
2013-03-19 02:34:00,57.3,56.0,29.84,South,175,0.0,-999.0,94,-99.99,,,0.16,weatherlink.com 1.10,2013-03-19 06:34:00,
2013-03-19 02:49:00,57.4,56.0,29.82,South,175,0.0,-999.0,94,-99.99,,,0.17,weatherlink.com 1.10,2013-03-19 06:49:00,
2013-03-19 03:04:00,57.6,56.0,29.84,South,175,0.0,-999.0,94,-99.99,,,0.17,weatherlink.com 1.10,2013-03-19 07:04:00,
2013-03-19 03:19:00,57.7,56.0,29.85,South,175,0.0,-999.0,95,-99.99,,,0.17,weatherlink.com 1.10,2013-03-19 07:19:00,
2013-03-19 03:34:00,57.7,56.0,29.84,South,175,0.0,-999.0,95,-99.99,,,0.17,weatherlink.com 1.10,2013-03-19 07:34:00,
2013-03-19 03:49:00,57.8,56.0,29.85,South,175,0.0,-999.0,95,-99.99,,,0.17,weatherlink.com 1.10,2013-03-19 07:49:00,
2013-03-19 04:04:00,57.8,56.0,29.83,WSW,248,0.0,-999.0,95,-99.99,,,0.17,weatherlink.com 1.10,2013-03-19 08:04:00,
2013-03-19 04:19:00,57.9,57.0,29.83,SSW,206,0.0,-999.0,95,-99.99,,,0.17,weatherlink.com 1.10,2013-03-19 08:19:00,
2013-03-19 04:34:00,57.9,57.0,29.83,SSW,206,0.0,-999.0,95,-99.99,,,0.17,weatherlink.com 1.10,2013-03-19 08:34:00,
2013-03-19 04:49:00,57.7,56.0,29.81,SSW,206,0.0,-999.0,95,-99.99,,,0.17,weatherlink.com 1.10,2013-03-19 08:49:00,
2013-03-19 05:04:00,57.6,56.0,29.82,SSW,206,0.0,-999.0,95,-99.99,,,0.17,weatherlink.com 1.10,2013-03-19 09:04:00,
2013-03-19 05:19:00,57.3,56.0,29.80,SSW,206,0.0,-999.0,95,-99.99,,,0.17,weatherlink.com 1.10,2013-03-19 09:19:00,
2013-03-19 05:34:00,56.6,55.0,29.80,SSW,206,0.0,-999.0,95,-99.99,,,0.17,weatherlink.com 1.10,2013-03-19 09:34:00,
2013-03-19 05:49:00,56.4,55.0,29.81,SSW,206,0.0,-999.0,95,-99.99,,,0.17,weatherlink.com 1.10,2013-03-19 09:49:00,
2013-03-19 06:04:00,56.1,55.0,29.82,SSW,206,0.0,-999.0,95,-99.99,,,0.17,weatherlink.com 1.10,2013-03-19 10:04:00,
2013-03-19 06:19:00,55.9,55.0,29.82,SSW,206,0.0,-999.0,95,-99.99,,,0.17,weatherlink.com 1.10,2013-03-19 10:19:00,
2013-03-19 06:34:00,56.3,55.0,29.85,SSW,206,0.0,-999.0,95,-99.99,,,0.17,weatherlink.com 1.10,2013-03-19 10:34:00,
2013-03-19 06:49:00,56.6,55.0,29.86,SSW,206,0.0,-999.0,95,-99.99,,,0.17,weatherlink.com 1.10,2013-03-19 10:49:00,
2013-03-19 07:04:00,56.7,55.0,29.87,SSW,206,0.0,-999.0,95,-99.99,,,0.17,weatherlink.com 1.10,2013-03-19 11:04:00,
2013-03-19 07:19:00,56.5,55.0,29.88,SSW,206,0.0,-999.0,95,-99.99,,,0.17,weatherlink.com 1.10,2013-03-19 11:19:00,
2013-03-19 07:34:00,56.4,55.0,29.88,SSW,206,0.0,-999.0,95,-99.99,,,0.17,weatherlink.com 1.10,2013-03-19 11:34:00,
2013-03-19 07:49:00,56.9,56.0,29.88,SW,221,0.0,-999.0,95,-99.99,,,0.17,weatherlink.com 1.10,2013-03-19 11:49:00,
2013-03-19 08:04:00,57.4,56.0,29.88,SW,221,0.0,-999.0,95,-99.99,,,0.17,weatherlink.com 1.10,2013-03-19 12:04:00,
2013-03-19 08:19:00,57.7,56.0,29.88,SW,221,0.0,-999.0,95,-99.99,,,0.17,weatherlink.com 1.10,2013-03-19 12:19:00,
2013-03-19 08:34:00,57.8,57.0,29.87,SW,221,0.0,-999.0,96,-99.99,,,0.17,weatherlink.com 1.10,2013-03-19 12:34:00,
2013-03-19 08:49:00,57.9,57.0,29.89,SW,221,0.0,-999.0,96,-99.99,,,0.17,weatherlink.com 1.10,2013-03-19 12:49:00,
2013-03-19 09:04:00,59.1,58.0,29.89,SW,221,0.0,-999.0,96,-99.99,,,0.17,weatherlink.com 1.10,2013-03-19 13:04:00,
2013-03-19 09:19:00,59.9,59.0,29.90,SW,221,1.0,-999.0,96,-99.99,,,0.17,weatherlink.com 1.10,2013-03-19 13:19:00,
2013-03-19 09:34:00,60.3,59.0,29.90,SW,221,0.0,-999.0,96,-99.99,,,0.17,weatherlink.com 1.10,2013-03-19 13:34:00,
2013-03-19 09:49:00,60.7,60.0,29.89,NNW,340,0.0,-999.0,96,-99.99,,,0.17,weatherlink.com 1.10,2013-03-19 13:49:00,
2013-03-19 10:04:00,61.2,60.0,29.90,NNW,340,0.0,-999.0,96,-99.99,,,0.17,weatherlink.com 1.10,2013-03-19 14:04:00,
2013-03-19 10:19:00,61.6,60.0,29.90,NW,322,0.0,-999.0,95,-99.99,,,0.17,weatherlink.com 1.10,2013-03-19 14:19:00,
2013-03-19 10:34:00,61.0,59.0,29.90,WNW,292,2.0,-999.0,93,-99.99,,,0.17,weatherlink.com 1.10,2013-03-19 14:34:00,
2013-03-19 10:49:00,61.7,59.0,29.90,NW,325,0.0,-999.0,92,-99.99,,,0.17,weatherlink.com 1.10,2013-03-19 14:49:00,
2013-03-19 11:05:00,64.4,61.0,29.90,NNW,346,0.0,-999.0,89,-99.99,,,0.17,weatherlink.com 1.10,2013-03-19 15:05:00,
2013-03-19 11:20:00,66.0,61.0,29.91,NW,319,0.0,-999.0,84,-99.99,,,0.17,weatherlink.com 1.10,2013-03-19 15:20:00,
2013-03-19 11:35:00,67.9,62.0,29.92,NNW,340,0.0,-999.0,80,-99.99,,,0.17,weatherlink.com 1.10,2013-03-19 15:35:00,
2013-03-19 11:50:00,69.0,62.0,29.92,NW,319,2.0,-999.0,78,-99.99,,,0.17,weatherlink.com 1.10,2013-03-19 15:50:00,
2013-03-19 12:05:00,70.0,62.0,29.93,NNW,327,0.0,-999.0,75,-99.99,,,0.17,weatherlink.com 1.10,2013-03-19 16:05:00,
2013-03-19 12:20:00,71.3,61.0,29.93,West,276,0.0,-999.0,71,-99.99,,,0.17,weatherlink.com 1.10,2013-03-19 16:20:00,
2013-03-19 12:35:00,71.1,60.0,29.93,NNW,337,1.0,-999.0,69,-99.99,,,0.17,weatherlink.com 1.10,2013-03-19 16:35:00,
2013-03-19 13:05:00,73.1,61.0,29.92,WNW,303,2.0,-999.0,65,-99.99,,,0.17,weatherlink.com 1.10,2013-03-19 17:05:00,
2013-03-19 13:20:00,73.4,61.0,29.91,NW,305,0.0,-999.0,65,-99.99,,,0.17,weatherlink.com 1.10,2013-03-19 17:20:00,
2013-03-19 13:35:00,73.8,61.0,29.90,NW,323,0.0,-999.0,64,-99.99,,,0.17,weatherlink.com 1.10,2013-03-19 17:35:00,
2013-03-19 13:50:00,74.9,60.0,29.90,NW,313,0.0,-999.0,61,-99.99,,,0.17,weatherlink.com 1.10,2013-03-19 17:50:00,
2013-03-19 14:05:00,75.1,60.0,29.90,SSE,150,2.0,-999.0,60,-99.99,,,0.17,weatherlink.com 1.10,2013-03-19 18:05:00,
2013-03-19 14:35:00,76.0,59.0,29.89,North,351,0.0,-999.0,56,-99.99,,,0.17,weatherlink.com 1.10,2013-03-19 18:35:00,
2013-03-19 14:50:00,76.3,59.0,29.88,NNW,340,1.0,-999.0,55,-99.99,,,0.17,weatherlink.com 1.10,2013-03-19 18:50:00,
2013-03-19 15:20:00,77.6,58.0,29.87,NW,313,1.0,-999.0,51,-99.99,,,0.17,weatherlink.com 1.10,2013-03-19 19:20:00,
2013-03-19 15:35:00,77.6,57.0,29.87,WNW,283,1.0,-999.0,49,-99.99,,,0.17,weatherlink.com 1.10,2013-03-19 19:35:00,
2013-03-19 15:51:00,77.4,56.0,29.87,NNW,336,2.0,-999.0,47,-99.99,,,0.17,weatherlink.com 1.10,2013-03-19 19:51:00,
2013-03-19 16:05:00,77.3,52.0,29.87,North,355,0.0,-999.0,42,-99.99,,,0.17,weatherlink.com 1.10,2013-03-19 20:05:00,
2013-03-19 16:20:00,77.0,53.0,29.87,NW,321,0.0,-999.0,43,-99.99,,,0.17,weatherlink.com 1.10,2013-03-19 20:20:00,
2013-03-19 16:35:00,76.7,52.0,29.87,NW,315,0.0,-999.0,43,-99.99,,,0.17,weatherlink.com 1.10,2013-03-19 20:35:00,
2013-03-19 16:50:00,76.4,52.0,29.87,NW,315,0.0,-999.0,42,-99.99,,,0.17,weatherlink.com 1.10,2013-03-19 20:50:00,
2013-03-19 17:05:00,76.3,49.0,29.88,WNW,286,0.0,-999.0,38,-99.99,,,0.17,weatherlink.com 1.10,2013-03-19 21:05:00,
2013-03-19 17:20:00,76.2,49.0,29.87,NNW,338,0.0,-999.0,39,-99.99,,,0.17,weatherlink.com 1.10,2013-03-19 21:20:00,
2013-03-19 17:35:00,76.2,48.0,29.87,West,276,2.0,-999.0,37,-99.99,,,0.17,weatherlink.com 1.10,2013-03-19 21:35:00,
2013-03-19 17:51:00,75.6,47.0,29.87,WNW,287,0.0,-999.0,37,-99.99,,,0.17,weatherlink.com 1.10,2013-03-19 21:51:00,
2013-03-19 18:05:00,75.5,48.0,29.88,WSW,244,0.0,-999.0,38,-99.99,,,0.17,weatherlink.com 1.10,2013-03-19 22:05:00,
2013-03-19 18:20:00,75.0,48.0,29.88,WNW,298,0.0,-999.0,39,-99.99,,,0.17,weatherlink.com 1.10,2013-03-19 22:20:00,
2013-03-19 18:36:00,74.4,46.0,29.88,WNW,298,0.0,-999.0,37,-99.99,,,0.17,weatherlink.com 1.10,2013-03-19 22:36:00,
2013-03-19 18:52:00,73.4,42.0,29.89,WNW,286,0.0,-999.0,32,-99.99,,,0.17,weatherlink.com 1.10,2013-03-19 22:52:00,
2013-03-19 19:06:00,72.4,39.0,29.90,WNW,286,0.0,-999.0,30,-99.99,,,0.17,weatherlink.com 1.10,2013-03-19 23:06:00,
2013-03-19 19:21:00,71.0,40.0,29.90,WNW,286,0.0,-999.0,32,-99.99,,,0.17,weatherlink.com 1.10,2013-03-19 23:21:00,
2013-03-19 19:36:00,69.4,40.0,29.91,WNW,286,0.0,-999.0,34,-99.99,,,0.17,weatherlink.com 1.10,2013-03-19 23:36:00,
2013-03-19 19:51:00,67.6,41.0,29.91,WNW,286,0.0,-999.0,38,-99.99,,,0.17,weatherlink.com 1.10,2013-03-19 23:51:00,
2013-03-19 20:21:00,64.4,41.0,29.92,WNW,286,0.0,-999.0,43,-99.99,,,0.17,weatherlink.com 1.10,2013-03-20 00:21:00,
2013-03-19 20:36:00,63.1,39.0,29.93,WNW,286,0.0,-999.0,42,-99.99,,,0.17,weatherlink.com 1.10,2013-03-20 00:36:00,
2013-03-19 20:51:00,61.9,40.0,29.93,WNW,286,0.0,-999.0,44,-99.99,,,0.17,weatherlink.com 1.10,2013-03-20 00:51:00,
2013-03-19 21:36:00,59.3,37.0,29.95,WNW,286,0.0,-999.0,43,-99.99,,,0.17,weatherlink.com 1.10,2013-03-20 01:36:00,
2013-03-19 21:51:00,59.1,37.0,29.96,WNW,286,0.0,-999.0,44,-99.99,,,0.17,weatherlink.com 1.10,2013-03-20 01:51:00,
2013-03-19 22:21:00,58.1,41.0,29.95,WNW,286,0.0,-999.0,54,-99.99,,,0.17,weatherlink.com 1.10,2013-03-20 02:21:00,
2013-03-19 22:51:00,56.9,38.0,29.96,WNW,286,0.0,-999.0,49,-99.99,,,0.17,weatherlink.com 1.10,2013-03-20 02:51:00,
2013-03-19 23:21:00,56.3,37.0,29.97,WNW,289,0.0,-999.0,48,-99.99,,,0.17,weatherlink.com 1.10,2013-03-20 03:21:00,
2013-03-19 23:51:00,56.3,36.0,29.97,WNW,289,0.0,-999.0,47,-99.99,,,0.17,weatherlink.com 1.10,2013-03-20 03:51:00,